createdAt,value
2023-01-18T00:01:09.466Z,2.35
2023-01-18T00:03:38.228Z,2.39
2023-01-18T00:06:07.847Z,2.40
2023-01-18T00:08:35.450Z,2.40
2023-01-18T00:11:05.727Z,2.40
2023-01-18T00:13:32.661Z,2.42
2023-01-18T00:16:10.542Z,2.39
2023-01-18T00:18:37.863Z,2.32
2023-01-18T00:21:08.664Z,2.29
2023-01-18T00:23:36.001Z,2.21
2023-01-18T00:26:05.585Z,2.19
2023-01-18T00:28:32.723Z,2.27
2023-01-18T00:30:59.445Z,2.37
2023-01-18T00:33:26.099Z,2.42
2023-01-18T00:35:58.161Z,2.45
2023-01-18T00:38:26.176Z,2.45
2023-01-18T00:40:52.989Z,2.43
2023-01-18T00:43:35.072Z,2.44
2023-01-18T00:46:01.744Z,2.51
2023-01-18T00:48:28.355Z,2.56
2023-01-18T00:50:55.083Z,2.52
2023-01-18T00:53:21.702Z,2.47
2023-01-18T00:55:49.722Z,2.40
2023-01-18T00:58:16.352Z,2.45
2023-01-18T01:00:42.940Z,2.43
2023-01-18T01:03:09.536Z,2.48
2023-01-18T01:05:53.434Z,2.60
2023-01-18T01:08:21.639Z,2.50
2023-01-18T01:10:50.478Z,2.53
2023-01-18T01:13:36.028Z,2.52
2023-01-18T01:16:26.567Z,2.51
2023-01-18T01:19:09.340Z,2.59
2023-01-18T01:21:51.099Z,2.54
2023-01-18T01:24:32.939Z,2.55
2023-01-18T01:26:59.460Z,2.58
2023-01-18T01:29:26.077Z,2.58
2023-01-18T01:31:52.652Z,2.63
2023-01-18T01:34:19.222Z,2.52
2023-01-18T01:36:45.764Z,2.50
2023-01-18T01:39:13.248Z,2.52
2023-01-18T01:41:39.908Z,2.57
2023-01-18T01:44:21.734Z,2.55
2023-01-18T01:46:58.858Z,2.40
2023-01-18T01:49:29.975Z,2.42
2023-01-18T01:52:02.460Z,2.42
2023-01-18T01:54:36.204Z,2.46
2023-01-18T01:57:11.112Z,2.32
2023-01-18T01:59:42.809Z,2.29
2023-01-18T02:02:10.793Z,2.27
2023-01-18T02:04:38.050Z,2.22
2023-01-18T02:07:04.758Z,2.17
2023-01-18T02:09:31.341Z,2.10
2023-01-18T02:11:57.879Z,2.09
2023-01-18T02:14:26.808Z,2.05
2023-01-18T02:16:54.452Z,2.04
2023-01-18T02:19:31.940Z,2.00
2023-01-18T02:22:10.001Z,1.94
2023-01-18T02:24:51.868Z,1.87
2023-01-18T02:27:24.841Z,1.85
2023-01-18T02:30:14.618Z,1.81
2023-01-18T02:33:06.700Z,1.82
2023-01-18T02:35:45.081Z,1.83
2023-01-18T02:38:17.208Z,1.84
2023-01-18T02:40:49.001Z,1.83
2023-01-18T02:43:35.052Z,1.75
2023-01-18T02:46:17.396Z,1.55
2023-01-18T02:48:46.453Z,1.56
2023-01-18T02:51:13.122Z,1.67
2023-01-18T02:53:44.243Z,1.54
2023-01-18T02:56:13.135Z,1.52
2023-01-18T02:58:47.070Z,1.41
2023-01-18T03:01:34.045Z,1.35
2023-01-18T03:04:09.153Z,1.37
2023-01-18T03:06:35.803Z,1.34
2023-01-18T03:09:03.151Z,1.30
2023-01-18T03:11:42.984Z,1.17
2023-01-18T03:14:40.123Z,1.21
2023-01-18T03:17:13.207Z,1.16
2023-01-18T03:20:00.026Z,1.14
2023-01-18T03:22:42.835Z,1.11
2023-01-18T03:25:13.440Z,1.07
2023-01-18T03:27:58.228Z,1.03
2023-01-18T03:30:40.531Z,0.96
2023-01-18T03:33:23.888Z,0.94
2023-01-18T03:35:56.764Z,0.88
2023-01-18T03:38:29.033Z,0.77
2023-01-18T03:40:56.815Z,0.81
2023-01-18T03:43:26.482Z,0.78
2023-01-18T03:45:55.655Z,0.81
2023-01-18T03:48:22.319Z,0.78
2023-01-18T03:51:05.184Z,0.74
2023-01-18T03:54:01.163Z,0.71
2023-01-18T03:56:37.315Z,0.63
2023-01-18T03:59:05.648Z,0.59
2023-01-18T04:01:32.597Z,0.62
2023-01-18T04:03:59.239Z,0.61
2023-01-18T04:06:26.910Z,0.42
2023-01-18T04:08:53.580Z,0.52
2023-01-18T04:11:20.168Z,0.60
2023-01-18T04:13:46.881Z,0.65
2023-01-18T04:16:13.599Z,0.69
2023-01-18T04:18:40.305Z,0.75
2023-01-18T04:21:06.925Z,0.80
2023-01-18T04:23:33.501Z,0.83
2023-01-18T04:26:00.118Z,0.82
2023-01-18T04:28:27.529Z,0.82
2023-01-18T04:30:56.257Z,0.80
2023-01-18T04:33:24.300Z,0.77
2023-01-18T04:35:51.798Z,0.77
2023-01-18T04:38:18.485Z,0.70
2023-01-18T04:40:45.093Z,0.59
2023-01-18T04:43:11.780Z,0.52
2023-01-18T04:45:38.514Z,0.46
2023-01-18T04:48:05.539Z,0.46
2023-01-18T04:50:32.201Z,0.45
2023-01-18T04:52:59.428Z,0.44
2023-01-18T04:55:26.319Z,0.43
2023-01-18T04:57:56.469Z,0.38
2023-01-18T05:00:24.217Z,0.36
2023-01-18T05:02:51.155Z,0.29
2023-01-18T05:05:18.761Z,0.27
2023-01-18T05:07:45.350Z,0.19
2023-01-18T05:10:12.311Z,0.15
2023-01-18T05:12:38.967Z,0.14
2023-01-18T05:15:06.106Z,0.13
2023-01-18T05:17:34.631Z,0.17
2023-01-18T05:20:02.463Z,0.11
2023-01-18T05:22:29.236Z,0.04
2023-01-18T05:24:55.864Z,0.06
2023-01-18T05:27:22.459Z,0.08
2023-01-18T05:29:49.142Z,0.06
2023-01-18T05:32:16.015Z,0.01
2023-01-18T05:34:44.085Z,0.04
2023-01-18T05:37:10.975Z,-0.03
2023-01-18T05:39:37.744Z,0.00
2023-01-18T05:42:05.734Z,-0.14
2023-01-18T05:44:32.350Z,-0.08
2023-01-18T05:46:59.550Z,-0.03
2023-01-18T05:49:26.176Z,0.02
2023-01-18T05:51:52.764Z,0.10
2023-01-18T05:54:20.072Z,0.14
2023-01-18T05:56:46.756Z,0.15
2023-01-18T05:59:15.572Z,0.15
2023-01-18T06:01:42.642Z,0.15
2023-01-18T06:04:09.299Z,0.17
2023-01-18T06:06:36.177Z,0.15
2023-01-18T06:09:03.392Z,-0.07
2023-01-18T06:11:30.130Z,-0.01
2023-01-18T06:13:56.802Z,-0.02
2023-01-18T06:16:24.648Z,-0.10
2023-01-18T06:18:51.439Z,-0.04
2023-01-18T06:21:18.716Z,-0.06
2023-01-18T06:23:45.282Z,0.02
2023-01-18T06:26:11.922Z,-0.08
2023-01-18T06:28:38.570Z,-0.03
2023-01-18T06:31:07.848Z,0.00
2023-01-18T06:33:35.004Z,0.00
2023-01-18T06:36:01.977Z,0.02
2023-01-18T06:38:29.830Z,0.07
2023-01-18T06:40:56.460Z,0.08
2023-01-18T06:43:23.271Z,0.10
2023-01-18T06:45:54.490Z,0.17
2023-01-18T06:48:22.111Z,0.16
2023-01-18T06:50:48.852Z,0.09
2023-01-18T06:53:15.520Z,-0.01
2023-01-18T06:55:42.128Z,-0.02
2023-01-18T06:58:08.747Z,0.10
2023-01-18T07:00:35.653Z,0.13
2023-01-18T07:03:02.232Z,0.08
2023-01-18T07:05:28.845Z,0.07
2023-01-18T07:07:55.418Z,0.18
2023-01-18T07:10:22.017Z,0.16
2023-01-18T07:12:50.837Z,0.10
2023-01-18T07:15:21.949Z,0.09
2023-01-18T07:17:50.455Z,-0.02
2023-01-18T07:20:17.545Z,0.01
2023-01-18T07:22:44.119Z,0.01
2023-01-18T07:25:19.578Z,-0.09
2023-01-18T07:27:46.769Z,0.06
2023-01-18T07:30:13.780Z,0.22
2023-01-18T07:32:47.176Z,0.20
2023-01-18T07:35:13.826Z,0.09
2023-01-18T07:37:43.623Z,-0.02
2023-01-18T07:40:11.052Z,-0.04
2023-01-18T07:42:37.672Z,-0.08
2023-01-18T07:45:05.795Z,-0.06
2023-01-18T07:47:32.436Z,-0.04
2023-01-18T07:49:58.988Z,-0.06
2023-01-18T07:52:25.681Z,-0.09
2023-01-18T07:54:52.585Z,-0.08
2023-01-18T07:57:19.365Z,-0.02
2023-01-18T07:59:45.980Z,0.02
2023-01-18T08:02:14.485Z,-0.05
2023-01-18T08:04:41.957Z,-0.07
2023-01-18T08:07:08.824Z,-0.03
2023-01-18T08:09:35.382Z,-0.02
2023-01-18T08:12:02.004Z,0.17
2023-01-18T08:14:28.553Z,0.27
2023-01-18T08:16:55.135Z,0.23
2023-01-18T08:19:21.713Z,0.24
2023-01-18T08:21:48.328Z,0.21
2023-01-18T08:24:15.166Z,0.21
2023-01-18T08:26:41.856Z,0.30
2023-01-18T08:29:08.435Z,0.35
2023-01-18T08:31:35.134Z,0.37
2023-01-18T08:34:02.058Z,0.59
2023-01-18T08:36:28.686Z,0.57
2023-01-18T08:38:57.567Z,0.59
2023-01-18T08:41:28.599Z,0.59
2023-01-18T08:43:56.120Z,0.53
2023-01-18T08:46:23.836Z,0.60
2023-01-18T08:48:51.870Z,0.61
2023-01-18T08:51:19.547Z,0.54
2023-01-18T08:53:47.043Z,0.51
2023-01-18T08:56:13.882Z,0.50
2023-01-18T08:58:40.589Z,0.47
2023-01-18T09:01:08.917Z,0.54
2023-01-18T09:03:36.196Z,0.52
2023-01-18T09:06:04.749Z,0.55
2023-01-18T09:08:31.923Z,0.57
2023-01-18T09:11:03.679Z,0.54
2023-01-18T09:13:31.081Z,0.60
2023-01-18T09:16:02.371Z,0.58
2023-01-18T09:18:30.238Z,0.61
2023-01-18T09:20:58.472Z,0.69
2023-01-18T09:23:25.844Z,0.62
2023-01-18T09:26:10.215Z,0.63
2023-01-18T09:28:37.089Z,0.68
2023-01-18T09:31:06.142Z,0.68
2023-01-18T09:33:37.914Z,0.74
2023-01-18T09:36:08.088Z,0.80
2023-01-18T09:38:36.464Z,0.85
2023-01-18T09:41:06.412Z,0.90
2023-01-18T09:43:39.906Z,1.10
2023-01-18T09:46:18.828Z,0.97
2023-01-18T09:48:49.454Z,0.98
2023-01-18T09:51:20.773Z,1.00
2023-01-18T09:54:02.656Z,0.99
2023-01-18T09:56:39.202Z,0.94
2023-01-18T09:59:12.743Z,1.03
2023-01-18T10:01:39.824Z,0.99
2023-01-18T10:04:12.947Z,0.93
2023-01-18T10:06:46.887Z,0.90
2023-01-18T10:09:20.868Z,1.02
2023-01-18T10:11:59.746Z,0.98
2023-01-18T10:14:46.238Z,0.96
2023-01-18T10:17:18.798Z,0.98
2023-01-18T10:19:45.436Z,1.01
2023-01-18T10:22:32.792Z,1.05
2023-01-18T10:25:05.647Z,1.09
2023-01-18T10:27:48.477Z,1.13
2023-01-18T10:30:30.592Z,1.22
2023-01-18T10:33:01.846Z,1.26
2023-01-18T10:35:34.756Z,1.36
2023-01-18T10:38:07.264Z,1.39
2023-01-18T10:40:36.665Z,1.46
2023-01-18T10:43:07.705Z,1.59
2023-01-18T10:45:35.660Z,1.77
2023-01-18T10:48:22.379Z,1.94
2023-01-18T10:50:53.319Z,2.06
2023-01-18T10:53:37.422Z,2.23
2023-01-18T10:56:06.931Z,2.36
2023-01-18T10:58:43.802Z,2.65
2023-01-18T11:01:27.690Z,2.98
2023-01-18T11:04:07.574Z,3.55
2023-01-18T11:07:00.766Z,3.91
2023-01-18T11:09:51.586Z,4.74
2023-01-18T11:12:35.886Z,5.09
2023-01-18T11:15:23.696Z,5.39
2023-01-18T11:17:50.381Z,5.48
2023-01-18T11:20:20.289Z,5.63
2023-01-18T11:23:14.840Z,5.73
2023-01-18T11:25:50.775Z,5.95
2023-01-18T11:28:22.921Z,5.70
2023-01-18T11:30:52.114Z,5.67
2023-01-18T11:33:20.811Z,5.62
2023-01-18T11:35:53.766Z,5.62
2023-01-18T11:38:23.665Z,5.30
2023-01-18T11:41:15.291Z,5.29
2023-01-18T11:43:57.635Z,5.31
2023-01-18T11:46:42.638Z,5.16
2023-01-18T11:49:31.801Z,5.28
2023-01-18T11:52:02.617Z,5.28
2023-01-18T11:54:46.736Z,5.25
2023-01-18T11:57:14.374Z,5.21
2023-01-18T11:59:43.645Z,5.16
2023-01-18T12:02:31.553Z,5.30
2023-01-18T12:05:18.093Z,5.38
2023-01-18T12:08:00.191Z,5.46
2023-01-18T12:10:34.202Z,5.31
2023-01-18T12:13:33.050Z,5.36
2023-01-18T12:16:05.295Z,5.54
2023-01-18T12:19:06.998Z,5.50
2023-01-18T12:21:54.495Z,5.47
2023-01-18T12:24:21.011Z,5.47
2023-01-18T12:26:54.264Z,5.40
2023-01-18T12:29:56.036Z,5.42
2023-01-18T12:32:30.490Z,5.47
2023-01-18T12:35:22.908Z,5.45
2023-01-18T12:37:58.782Z,5.29
2023-01-18T12:40:26.593Z,5.32
2023-01-18T12:43:09.040Z,5.37
2023-01-18T12:45:41.462Z,5.17
2023-01-18T12:48:24.714Z,5.09
2023-01-18T12:50:51.651Z,5.12
2023-01-18T12:53:28.356Z,5.02
2023-01-18T12:55:56.359Z,4.95
2023-01-18T12:58:25.985Z,4.97
2023-01-18T13:00:58.182Z,5.10
2023-01-18T13:03:31.765Z,5.18
2023-01-18T13:06:01.002Z,5.22
2023-01-18T13:08:34.586Z,5.09
2023-01-18T13:11:07.618Z,5.05
2023-01-18T13:13:35.331Z,4.99
2023-01-18T13:16:12.710Z,4.88
2023-01-18T13:18:43.091Z,4.83
2023-01-18T13:21:32.874Z,4.93
2023-01-18T13:24:22.789Z,4.95
2023-01-18T13:26:49.572Z,4.92
2023-01-18T13:29:25.845Z,4.86
2023-01-18T13:31:52.922Z,4.97
2023-01-18T13:34:24.340Z,5.01
2023-01-18T13:36:50.955Z,5.01
2023-01-18T13:39:19.744Z,4.97
2023-01-18T13:42:02.787Z,5.05
2023-01-18T13:44:36.245Z,5.06
2023-01-18T13:47:02.883Z,4.98
2023-01-18T13:49:46.365Z,4.93
2023-01-18T13:52:32.323Z,4.86
2023-01-18T13:55:02.420Z,4.78
2023-01-18T13:57:31.157Z,4.81
2023-01-18T13:59:58.224Z,4.81
2023-01-18T14:02:33.997Z,4.87
2023-01-18T14:05:07.207Z,4.76
2023-01-18T14:07:42.284Z,4.72
2023-01-18T14:10:26.308Z,4.71
2023-01-18T14:12:55.558Z,4.68
2023-01-18T14:15:26.624Z,4.66
2023-01-18T14:17:58.841Z,4.65
2023-01-18T14:20:48.752Z,4.68
2023-01-18T14:23:25.215Z,4.66
2023-01-18T14:26:08.133Z,4.67
2023-01-18T14:28:42.311Z,4.69
2023-01-18T14:31:16.523Z,4.66
2023-01-18T14:33:43.213Z,4.67
2023-01-18T14:36:26.863Z,4.65
2023-01-18T14:39:12.979Z,4.63
2023-01-18T14:41:43.583Z,4.61
2023-01-18T14:44:23.926Z,4.65
2023-01-18T14:46:53.921Z,4.69
2023-01-18T14:49:29.705Z,4.66
2023-01-18T14:51:56.747Z,4.67
2023-01-18T14:54:24.938Z,4.70
2023-01-18T14:57:00.108Z,4.72
2023-01-18T14:59:27.861Z,4.70
2023-01-18T15:01:57.055Z,4.72
2023-01-18T15:04:26.401Z,4.74
2023-01-18T15:06:55.259Z,4.75
2023-01-18T15:09:25.952Z,4.91
2023-01-18T15:11:59.545Z,4.98
2023-01-18T15:14:30.942Z,5.05
2023-01-18T15:17:00.138Z,5.06
2023-01-18T15:19:33.334Z,4.96
2023-01-18T15:22:02.314Z,4.80
2023-01-18T15:24:29.727Z,4.71
2023-01-18T15:27:01.460Z,4.68
2023-01-18T15:29:34.536Z,4.62
2023-01-18T15:32:20.307Z,4.58
2023-01-18T15:34:49.489Z,4.51
2023-01-18T15:37:22.595Z,4.44
2023-01-18T15:39:56.804Z,4.41
2023-01-18T15:42:42.924Z,4.36
2023-01-18T15:45:27.814Z,4.30
2023-01-18T15:47:58.611Z,4.30
2023-01-18T15:50:37.951Z,4.26
2023-01-18T15:53:11.559Z,4.15
2023-01-18T15:55:49.716Z,4.13
2023-01-18T15:58:43.233Z,4.06
2023-01-18T16:01:20.850Z,3.98
2023-01-18T16:03:47.595Z,3.92
2023-01-18T16:06:20.362Z,3.79
2023-01-18T16:09:10.340Z,3.74
2023-01-18T16:11:40.354Z,3.71
2023-01-18T16:14:33.923Z,3.69
2023-01-18T16:17:08.343Z,3.65
2023-01-18T16:19:40.747Z,3.61
2023-01-18T16:22:22.084Z,3.58
2023-01-18T16:24:58.565Z,3.45
2023-01-18T16:27:27.632Z,3.43
2023-01-18T16:29:58.463Z,3.45
2023-01-18T16:32:25.085Z,3.42
2023-01-18T16:34:53.900Z,3.40
2023-01-18T16:37:21.671Z,3.36
2023-01-18T16:39:49.380Z,3.33
2023-01-18T16:42:18.242Z,3.29
2023-01-18T16:44:47.206Z,3.25
2023-01-18T16:47:15.788Z,3.23
2023-01-18T16:49:44.157Z,3.22
2023-01-18T16:52:12.898Z,3.16
2023-01-18T16:54:40.598Z,3.13
2023-01-18T16:57:07.278Z,3.10
2023-01-18T16:59:33.872Z,3.01
2023-01-18T17:02:00.611Z,2.90
2023-01-18T17:04:27.328Z,2.92
2023-01-18T17:06:53.993Z,2.86
2023-01-18T17:09:23.850Z,2.88
2023-01-18T17:11:51.440Z,2.91
2023-01-18T17:14:19.169Z,2.92
2023-01-18T17:16:46.741Z,3.02
2023-01-18T17:19:16.494Z,3.08
2023-01-18T17:21:43.836Z,3.10
2023-01-18T17:24:11.553Z,2.99
2023-01-18T17:26:39.936Z,3.04
2023-01-18T17:29:07.563Z,3.04
2023-01-18T17:31:39.243Z,2.96
2023-01-18T17:34:17.762Z,2.86
2023-01-18T17:36:45.648Z,2.93
2023-01-18T17:39:14.865Z,2.82
2023-01-18T17:41:42.201Z,2.81
2023-01-18T17:44:09.332Z,2.75
2023-01-18T17:46:37.001Z,2.64
2023-01-18T17:49:04.421Z,2.66
2023-01-18T17:51:31.084Z,2.65
2023-01-18T17:54:00.830Z,2.60
2023-01-18T17:56:28.601Z,2.60
2023-01-18T17:58:55.252Z,2.44
2023-01-18T18:01:22.669Z,2.34
2023-01-18T18:03:51.039Z,2.37
2023-01-18T18:06:30.295Z,2.17
2023-01-18T18:08:57.834Z,2.26
2023-01-18T18:11:24.761Z,2.14
2023-01-18T18:13:51.457Z,2.13
2023-01-18T18:16:18.842Z,2.07
2023-01-18T18:18:46.107Z,1.87
2023-01-18T18:21:12.782Z,1.83
2023-01-18T18:23:39.700Z,1.76
2023-01-18T18:26:06.458Z,1.81
2023-01-18T18:28:33.554Z,1.82
2023-01-18T18:31:00.548Z,1.69
2023-01-18T18:33:28.834Z,1.70
2023-01-18T18:35:56.182Z,1.69
2023-01-18T18:38:23.117Z,1.52
2023-01-18T18:40:50.911Z,1.60
2023-01-18T18:43:17.708Z,1.54
2023-01-18T18:45:44.950Z,1.56
2023-01-18T18:48:13.156Z,1.60
2023-01-18T18:50:40.250Z,1.46
2023-01-18T18:53:07.601Z,1.42
2023-01-18T18:55:34.209Z,1.41
2023-01-18T18:58:00.818Z,1.38
2023-01-18T19:00:27.488Z,1.38
2023-01-18T19:02:59.009Z,1.36
2023-01-18T19:05:25.831Z,1.29
2023-01-18T19:07:52.987Z,1.33
2023-01-18T19:10:20.001Z,1.33
2023-01-18T19:12:46.756Z,1.27
2023-01-18T19:15:13.368Z,1.17
2023-01-18T19:17:39.956Z,1.19
2023-01-18T19:20:09.981Z,1.14
2023-01-18T19:22:38.308Z,1.17
2023-01-18T19:25:05.608Z,1.18
2023-01-18T19:27:32.212Z,1.08
2023-01-18T19:29:58.837Z,1.09
2023-01-18T19:32:25.437Z,1.07
2023-01-18T19:34:51.972Z,1.05
2023-01-18T19:37:18.568Z,1.09
2023-01-18T19:39:45.985Z,0.97
2023-01-18T19:42:15.786Z,1.02
2023-01-18T19:44:45.597Z,0.89
2023-01-18T19:47:12.195Z,0.89
2023-01-18T19:49:40.213Z,0.96
2023-01-18T19:52:06.812Z,0.80
2023-01-18T19:54:33.393Z,0.84
2023-01-18T19:56:59.997Z,0.89
2023-01-18T19:59:26.558Z,0.84
2023-01-18T20:01:53.355Z,0.70
2023-01-18T20:04:20.225Z,0.69
2023-01-18T20:06:46.876Z,0.67
2023-01-18T20:09:27.035Z,0.60
2023-01-18T20:11:58.905Z,0.52
2023-01-18T20:14:36.616Z,0.45
2023-01-18T20:17:07.415Z,0.49
2023-01-18T20:19:33.987Z,0.43
2023-01-18T20:22:00.570Z,0.53
2023-01-18T20:24:27.128Z,0.55
2023-01-18T20:26:55.151Z,0.50
2023-01-18T20:29:24.327Z,0.49
2023-01-18T20:31:51.507Z,0.51
2023-01-18T20:34:18.924Z,0.54
2023-01-18T20:36:46.635Z,0.59
2023-01-18T20:39:13.238Z,0.55
2023-01-18T20:41:40.022Z,0.56
2023-01-18T20:44:07.115Z,0.61
2023-01-18T20:46:34.022Z,0.62
2023-01-18T20:49:03.338Z,0.63
2023-01-18T20:51:31.189Z,0.64
2023-01-18T20:53:57.858Z,0.62
2023-01-18T20:56:29.692Z,0.62
2023-01-18T20:58:58.059Z,0.62
2023-01-18T21:01:31.435Z,0.68
2023-01-18T21:03:59.208Z,0.63
2023-01-18T21:06:25.981Z,0.58
2023-01-18T21:08:53.940Z,0.61
2023-01-18T21:11:25.481Z,0.63
2023-01-18T21:13:54.794Z,0.60
2023-01-18T21:16:23.492Z,0.62
2023-01-18T21:18:52.725Z,0.59
2023-01-18T21:21:20.588Z,0.63
2023-01-18T21:23:47.292Z,0.59
2023-01-18T21:26:14.749Z,0.61
2023-01-18T21:28:41.454Z,0.56
2023-01-18T21:31:08.172Z,0.56
2023-01-18T21:33:35.192Z,0.53
2023-01-18T21:36:05.623Z,0.54
2023-01-18T21:38:32.838Z,0.58
2023-01-18T21:41:19.505Z,0.57
2023-01-18T21:44:01.605Z,0.56
2023-01-18T21:46:28.354Z,0.53
2023-01-18T21:48:54.932Z,0.51
2023-01-18T21:51:37.012Z,0.56
2023-01-18T21:54:19.009Z,0.57
2023-01-18T21:56:45.935Z,0.56
2023-01-18T21:59:13.671Z,0.51
2023-01-18T22:01:43.615Z,0.55
2023-01-18T22:04:28.092Z,0.49
2023-01-18T22:06:57.687Z,0.39
2023-01-18T22:09:24.280Z,0.43
2023-01-18T22:11:51.141Z,0.46
2023-01-18T22:14:17.751Z,0.48
2023-01-18T22:16:44.526Z,0.50
2023-01-18T22:19:11.781Z,0.50
2023-01-18T22:21:38.857Z,0.53
2023-01-18T22:24:08.857Z,0.54
2023-01-18T22:26:42.897Z,0.60
2023-01-18T22:29:13.872Z,0.59
2023-01-18T22:31:50.290Z,0.59
2023-01-18T22:34:28.976Z,0.56
2023-01-18T22:36:55.559Z,0.58
2023-01-18T22:39:22.137Z,0.58
2023-01-18T22:41:48.712Z,0.58
2023-01-18T22:44:17.086Z,0.54
2023-01-18T22:46:50.346Z,0.56
2023-01-18T22:49:19.883Z,0.57
2023-01-18T22:51:46.457Z,0.59
2023-01-18T22:54:16.074Z,0.50
2023-01-18T22:56:47.184Z,0.49
2023-01-18T22:59:13.844Z,0.54
2023-01-18T23:01:46.925Z,0.43
2023-01-18T23:04:24.207Z,0.49
2023-01-18T23:07:11.908Z,0.53
2023-01-18T23:09:52.892Z,0.53
2023-01-18T23:12:26.480Z,0.54
2023-01-18T23:15:14.625Z,0.55
2023-01-18T23:17:42.297Z,0.54
2023-01-18T23:20:11.645Z,0.53
2023-01-18T23:22:45.753Z,0.53
2023-01-18T23:25:19.275Z,0.51
2023-01-18T23:27:45.868Z,0.54
2023-01-18T23:30:21.904Z,0.53
2023-01-18T23:32:48.499Z,0.54
2023-01-18T23:35:17.765Z,0.56
2023-01-18T23:37:50.473Z,0.58
2023-01-18T23:40:45.918Z,0.60
2023-01-18T23:43:37.786Z,0.53
2023-01-18T23:46:22.904Z,0.50
2023-01-18T23:49:04.682Z,0.44
2023-01-18T23:51:54.882Z,0.43
2023-01-18T23:54:22.419Z,0.37
2023-01-18T23:56:49.174Z,0.43
2023-01-18T23:59:28.937Z,0.48
